Bandon, OR

1:14 AM PDT on August 30, 2014 (GMT -0700)
KORBANDO2 | Change Station
CLOSE
Current Station
Personal Weather Station
Location: Bandon, OR
Elevation: 77 ft
Nearby Weather Stations

Elev 77 ft 43.12 °N, 124.43 °W | Updated 26 seconds ago

Overcast
Overcast
57.8 °F
Feels Like 57.8 °F
N
2.0
Wind Variable Wind from NE
Gusts 4.0 mph

Today
High -- | Low -- °F
--% Chance of Precip.
Yesterday
High -- | Low -- °F
Precip. -- in
6:39 AM 7:55 PM
Waxing Crescent, 20% visible
Pressure 30.02 in
Visibility 10.0 miles
Clouds Overcast 1300 ft
Dew Point Not available.
Humidity Not available.
Rainfall 0.00 in
Snow Depth Not available.
UV 0 out of 12
Pollen 3.30 out of 12
Air Quality Not available.
Flu Activity Not available.
METAR KOTH 300755Z 15003KT 10SM OVC013 17/17 A3002 RMK AO1

More Conditions Fewer Conditions

Pressure 30.02 in
Visibility 10.0 miles
Clouds Overcast 1300 ft
Dew Point Not available.
Humidity Not available.
Rainfall 0.00 in
Snow Depth Not available.
UV 0 out of 12
Pollen 3.30 out of 12
Air Quality Not available.
Flu Activity Not available.
METAR KOTH 300755Z 15003KT 10SM OVC013 17/17 A3002 RMK AO1

More Conditions Fewer Conditions

10-Day Weather Forecast

Almanac

Astronomy

Aug. 30, 2014 Rise Set
Actual Time 6:39 AM PDT 7:55 PM PDT
Civil Twilight 6:10 AM PDT 8:25 PM PDT
Nautical Twilight 5:35 AM PDT 9:00 PM PDT
Astronomical Twilight 4:57 AM PDT 9:37 PM PDT
Moon 11:41 AM PDT 10:24 PM PDT
Length of Visible Light 14h 14m
Length of Day
13h 15m
Tomorrow will be 2m 49s shorter.
Waxing Crescent, 20% of the Moon is Illuminated
Today
Waxing Crescent
Sep 2
First Quarter
Sep 8
Full
Sep 15
Last Quarter
Sep 24
New

Today's Extremes

State Highs State Lows

Community

WunderPhotos

Upload Photos

1,748,468 photos uploaded!

Nearby

Snow Depth

Station Depth Elevation
Bigelow Camp 1 in 5120 ft
Fish Lake 0 in 4665 ft
Annie Springs 0 in 6020 ft
Diamond Lake 1 in 5315 ft
Billie Creek Divide 0 in 5300 ft

Earthquake Activity

City Distance Mag. Time & Date
No recent earthquake activity has been reported nearby.
Minimum magnitude displayed is 2.5.

Coastal Water Temperatures

Place Temperature
Port Orford, OR 51.1 °F
Charleston, OR 57.0 °F
South Beach, OR 55.0 °F

Nearby Weather Stations